Home > Products > Valid Products > TAF

000
FTUS45 KPIH 230200 AAA
TAFPIH
TAF AMD
KPIH 230208Z 2302/2324 22015G23KT P6SM VCSH BKN020 BKN110
     FM230500 23012G20KT P6SM -RASN OVC015
     FM231000 23015KT P6SM SCT008 BKN015
     FM231400 23012KT P6SM OVC008
     FM232000 24016G25KT P6SM SCT008 OVC015=



000
FTUS45 KPIH 230200 AAA
TAFSUN
TAF AMD
KSUN 230208Z 2302/2324 32009KT P6SM SCT025 BKN100
     FM230300 31005KT 5SM -SN BKN020 OVC050
     FM230500 31009KT P6SM SCT020
     FM231300 31015KT P6SM SKC
     FM231900 16008KT P6SM FEW015
      AMD LTD TO CLD VIS AND WIND 2306/2314=



000
FTUS45 KPIH 230000 AAA
TAFIDA
TAF AMD
KIDA 230003Z 2300/2324 23012KT P6SM VCSH SCT008 OVC070
     FM230600 24011KT P6SM VCSH BKN008 OVC015
     FM231000 21010KT P6SM SCT008 BKN100
     FM231400 21010KT P6SM OVC008=



000
FTUS45 KPIH 222300
TAFPIH
TAF
KPIH 222335Z 2300/2324 24015G25KT P6SM VCSH SCT020 BKN110
      TEMPO 2300/2302 BKN020
     FM230500 26014G22KT P6SM -RASN OVC015
     FM231000 23015KT P6SM SCT008 BKN015
     FM231400 23012KT P6SM OVC008
     FM232000 24016G25KT P6SM SCT008 OVC015=



000
FTUS45 KPIH 222300
TAFSUN
TAF
KSUN 222335Z 2300/2324 32009KT P6SM SCT025 BKN100
     FM230200 31005KT 5SM -SN BKN020 OVC050
     FM230500 31009KT P6SM SCT020
     FM231300 31015KT P6SM SKC
     FM231900 16008KT P6SM FEW015
      AMD LTD TO CLD VIS AND WIND 2306/2314=



000
FTUS45 KPIH 222300
TAFBYI
TAF
KBYI 222335Z 2300/2324 25013G20KT P6SM SCT020 BKN150
     FM230300 25014KT P6SM VCSH BKN025
     FM230700 27013KT P6SM VCSH OVC025
     FM231000 27015KT P6SM OVC008
     FM231900 26017G24KT P6SM SCT008 BKN080=



000
FTUS45 KPIH 222300
TAFIDA
TAF
KIDA 222335Z 2300/2324 23014G23KT P6SM VCSH BKN008 OVC020
     FM230200 22012G20KT P6SM SCT020 OVC100
     FM230600 24011KT P6SM VCSH BKN008 OVC015
     FM231000 21010KT P6SM SCT008 BKN100
     FM231400 21010KT P6SM OVC008=



000
FTUS45 KPIH 222200 AAC
TAFIDA
TAF AMD
KIDA 222239Z 2223/2318 21020G30KT P6SM VCSH OVC008
     FM230200 22006KT P6SM -RA SCT008 OVC020
     FM230800 24010KT P6SM VCSH OVC015
     FM231400 21010KT P6SM OVC008=



000
FTUS45 KPIH 222100 AAB
TAFBYI
TAF AMD
KBYI 222127Z 2221/2318 26015G25KT P6SM -RA SCT010 OVC035
     FM230100 25015KT P6SM VCSH BKN025
     FM230800 27020KT P6SM VCSH OVC025
     FM231200 27020KT P6SM OVC008=



000
FTUS45 KPIH 222100 AAB
TAFIDA
TAF AMD
KIDA 222126Z 2221/2318 21020G30KT P6SM VCSH OVC015
     FM230200 22006KT P6SM -RA OVC020
     FM230800 24010KT P6SM VCSH OVC015
     FM231400 21010KT P6SM OVC008=



000
FTUS45 KPIH 222100 AAB
TAFPIH
TAF AMD
KPIH 222125Z 2221/2318 23025G35KT P6SM -RA OVC025
      TEMPO 2221/2224 BKN015 OVC030
     FM230000 23015G25KT P6SM VCSH OVC020
     FM230600 26015KT P6SM -RASN OVC025
     FM231400 23010KT P6SM OVC008=



000
FTUS45 KPIH 221900 AAA
TAFIDA
TAF AMD
KIDA 221901Z 2219/2318 21020G30KT P6SM -RA OVC015
      TEMPO 2219/2221 SCT015 OVC025
     FM222100 25015G25KT P6SM VCSH OVC015
     FM230200 22006KT P6SM -RA OVC020
     FM230800 24010KT P6SM VCSH OVC015
     FM231400 21010KT P6SM OVC008=



000
FTUS45 KPIH 221800 AAA
TAFPIH
TAF AMD
KPIH 221859Z 2219/2318 22025G35KT P6SM -RA BKN025 OVC040
      TEMPO 2219/2221 4SM -RA BR BKN015 OVC030
     FM222100 23020G30KT P6SM -RA OVC025
     FM230000 23015G25KT P6SM VCSH OVC020
     FM230600 26015KT P6SM -RASN OVC025
     FM231400 23010KT P6SM OVC008=



000
FTUS45 KPIH 221800 CCA
TAFPIH
TAF COR
KPIH 221859Z 2219/2318 22020G30KT P6SM -RA BKN025 OVC040
      TEMPO 2219/2221 4SM -RA BR BKN015 OVC030
     FM222100 23020G30KT P6SM -RA OVC025
     FM230000 23015G25KT P6SM VCSH OVC020
     FM230600 26015KT P6SM -RASN OVC025
     FM231400 23010KT P6SM OVC008=



000
FTUS45 KPIH 221800 AAB
TAFSUN
TAF AMD
KSUN 221857Z 2219/2318 29008KT P6SM VCSH SCT015 BKN035
     FM230000 30006KT P6SM SCT025 BKN100
     FM231300 31015KT P6SM SKC=



000
FTUS45 KPIH 221800 CCA
TAFBYI
TAF COR
KBYI 221815Z 2218/2318 28020G30KT P6SM -RA VCTS SCT025CB OVC040
      TEMPO 2218/2219 2SM RA BR BKN025 OVC040
     FM222000 27015G25KT P6SM -RA SCT010 OVC020
     FM230100 25015KT P6SM VCSH BKN020
     FM230800 27020KT P6SM VCSH OVC020
     FM231200 27020KT P6SM OVC008=



000
FTUS45 KPIH 221800 CCA
TAFSUN
TAF COR
KSUN 221809Z 2218/2318 VRB04KT P6SM VCSH FEW008 SCT015 BKN025
      TEMPO 2218/2220 2SM -SN BKN008 OVC015
     FM222200 29008KT P6SM VCSH SCT015 BKN035
     FM230000 30006KT P6SM SCT025 BKN100
     FM231300 31015KT P6SM SKC=



000
FTUS45 KPIH 221800 AAA
TAFBYI
TAF AMD
KBYI 221809Z 2218/2318 28020G30KT P6SM -RA VCTS SCT025CB OVC040
     FM222000 27015G25KT P6SM -RA SCT010 OVC020
     FM230100 25015KT P6SM VCSH BKN020
     FM230800 27020KT P6SM VCSH OVC020
     FM231200 27020KT P6SM OVC008=



000
FTUS45 KPIH 221800 AAA
TAFSUN
TAF AMD
KSUN 221808Z 2218/2318 VRB04KT P6SM VCSH FEW008 SCT015 BKN025
      TEMPO 2218/2222 2SM -SN BKN008 OVC015
     FM222200 29008KT P6SM VCSH SCT015 BKN035
     FM230000 30006KT P6SM SCT025 BKN100
     FM231300 31015KT P6SM SKC=



000
FTUS45 KPIH 221700
TAFPIH
TAF
KPIH 221720Z 2218/2318 22025G35KT P6SM -RA BKN025 OVC040
     FM222100 23020G30KT P6SM -RA OVC025
     FM230000 23015G25KT P6SM VCSH OVC020
     FM230600 26015KT P6SM -RASN OVC025
     FM231400 23010KT P6SM OVC008=



000
FTUS45 KPIH 221700
TAFIDA
TAF
KIDA 221720Z 2218/2318 22020G30KT P6SM -RA OVC015
     FM222100 25015G25KT P6SM VCSH OVC015
     FM230200 22006KT P6SM -RA OVC020
     FM230800 24010KT P6SM VCSH OVC015
     FM231400 21010KT P6SM OVC008=



000
FTUS45 KPIH 221700
TAFSUN
TAF
KSUN 221720Z 2218/2318 VRB05KT 2SM -SN BKN008 OVC015
     FM222200 29008KT P6SM VCSH SCT015 BKN025
      TEMPO 2222/2224 BKN015 OVC025
     FM230000 30006KT P6SM SCT025 BKN100
     FM231300 31015KT P6SM SKC=



000
FTUS45 KPIH 221700
TAFBYI
TAF
KBYI 221720Z 2218/2318 28020G30KT P6SM -RA SCT025 OVC040
     FM222000 27015G25KT P6SM -RA SCT010 OVC020
     FM230100 25015KT P6SM VCSH BKN020
     FM230800 27020KT P6SM VCSH OVC020
     FM231200 27020KT P6SM OVC008=



000
FTUS45 KPIH 221700 AAA
TAFBYI
TAF AMD
KBYI 221714Z 2217/2312 28020G30KT P6SM -RA SCT025 OVC040
     FM222000 27015G25KT P6SM -RA SCT010 OVC020
     FM230100 25015KT P6SM VCSH BKN020
     FM230800 27020KT P6SM VCSH OVC020=



000
FTUS45 KPIH 221700 AAA
TAFIDA
TAF AMD
KIDA 221713Z 2217/2312 22020G30KT P6SM -RA OVC015
     FM222100 25015G25KT P6SM VCSH OVC015
     FM230200 22006KT P6SM -RA OVC020
     FM230800 24010KT P6SM VCSH OVC015=



000
FTUS45 KPIH 221400 AAB
TAFSUN
TAF AMD
KSUN 221442Z 2215/2312 VRB05KT 2SM -SN BKN008 OVC015
     FM221900 27008KT 4SM -SHRASN BR SCT010 BKN025
     FM230100 29008KT P6SM VCSH SCT020 BKN060=



000
FTUS45 KPIH 221300 AAA
TAFSUN
TAF AMD
KSUN 221334Z 2214/2312 VRB05KT 2SM -SN SCT008 OVC018
      TEMPO 2214/2217 1SM -SN OVC003
     FM221700 27008KT 2SM -SHRASN SCT010 OVC020
     FM230100 29008KT P6SM VCSH SCT020 BKN060
      AMD LTD TO CLD VIS AND WIND TIL 221400=



000
FTUS45 KPIH 221100
TAFSUN
TAF
KSUN 221120Z 2212/2312 VRB05KT 1SM -SN OVC005
     FM221700 27008KT 2SM -SHRASN SCT010 OVC020
     FM230100 29008KT P6SM VCSH SCT020 BKN060
      AMD LTD TO CLD VIS AND WIND TIL 221400=



000
FTUS45 KPIH 221100
TAFBYI
TAF
KBYI 221120Z 2212/2312 22015KT 6SM -RA SCT040 OVC060
     FM221900 27015G25KT 5SM -SHRA SCT010 OVC020
     FM222300 25015G25KT P6SM VCSH BKN020
     FM230800 27015KT P6SM VCSH OVC020=



000
FTUS45 KPIH 221100
TAFIDA
TAF
KIDA 221120Z 2212/2312 19012KT 6SM -SHRASN SCT010 OVC020
     FM221800 22020G30KT 6SM -SHRASN SCT015 BKN035
     FM222200 22015G25KT P6SM VCSH BKN020
     FM230200 22012KT P6SM OVC020=



000
FTUS45 KPIH 221100
TAFPIH
TAF
KPIH 221120Z 2212/2312 20015G25KT 6SM -RA SCT025 OVC050
     FM221800 22020G30KT 6SM -SHRA SCT010 BKN020
     FM230000 22020G30KT P6SM VCSH BKN020
     FM230300 24012KT P6SM OVC020=



000
FTUS45 KPIH 220900 AAB
TAFSUN
TAF AMD
KSUN 220924Z 2209/2306 VRB05KT 3SM -SHSN SCT015 OVC020
      TEMPO 2209/2212 1SM -SN BKN007 OVC012
     FM221200 VRB05KT 1SM -SN SCT005 OVC010
     FM221700 27008KT 2SM -SHRASN SCT010 OVC020
     FM222300 29008KT P6SM VCSH SCT020 BKN060
      AMD LTD TO CLD VIS AND WIND TIL 221400=



000
FTUS45 KPIH 220900 AAA
TAFPIH
TAF AMD
KPIH 220923Z 2209/2306 23015KT P6SM VCSH SCT025 OVC050
     FM221000 19015G25KT 6SM -SHRASN SCT010 OVC020
     FM221200 19015KT 4SM -RA BKN010 OVC030
     FM221800 22020G30KT 6SM -SHRA SCT010 BKN020
     FM230000 22020G30KT P6SM VCSH BKN020=



000
FTUS45 KPIH 220900 AAA
TAFIDA
TAF AMD
KIDA 220923Z 2209/2306 21008KT P6SM VCSH SCT025 BKN050
     FM221000 19012KT 6SM -SHRASN SCT010 OVC020
     FM221200 20015KT 2SM -RASN BKN005 OVC010
     FM221800 22020G30KT 6SM -SHRASN SCT015 BKN035
     FM230000 22015G25KT P6SM VCSH BKN020=



000
FTUS45 KPIH 220600 AAA
TAFSUN
TAF AMD
KSUN 220652Z 2207/2306 VRB05KT 6SM -SHSN SCT015 OVC020
      TEMPO 2207/2211 3SM -SN OVC015
     FM221200 VRB05KT 1SM -SN SCT005 OVC010
     FM221700 27008KT 2SM -SHRASN SCT010 OVC020
     FM222300 29008KT P6SM VCSH SCT020 BKN060
      AMD LTD TO CLD VIS AND WIND TIL 221400=



000
FTUS45 KPIH 220500
TAFSUN
TAF
KSUN 220520Z 2206/2306 VRB05KT 3SM -SHSN SCT015 OVC020
     FM221200 VRB05KT 1SM -SN SCT005 OVC010
     FM221700 27008KT 2SM -SHRASN SCT010 OVC020
     FM222300 29008KT P6SM VCSH SCT020 BKN060
      AMD LTD TO CLD VIS AND WIND TIL 221400=



000
FTUS45 KPIH 220500
TAFIDA
TAF
KIDA 220520Z 2206/2306 21008KT P6SM VCSH SCT025 BKN050
     FM220900 19012KT 6SM -SHRASN SCT010 OVC020
     FM221200 20015KT 2SM -RASN BKN005 OVC010
     FM221800 22020G30KT 6SM -SHRASN SCT015 BKN035
     FM230000 22015G25KT P6SM VCSH BKN020=



000
FTUS45 KPIH 220500
TAFBYI
TAF
KBYI 220520Z 2206/2306 21008KT P6SM VCSH SCT025 BKN040
     FM220700 21012KT 6SM -SHRA SCT015 OVC030
     FM221100 22015KT 4SM -RA SCT010 OVC020
     FM221900 27015G25KT 5SM -SHRA SCT010 OVC020
     FM230000 25015G25KT P6SM VCSH BKN020=



000
FTUS45 KPIH 220500
TAFPIH
TAF
KPIH 220520Z 2206/2306 19015KT P6SM VCSH SCT025 OVC050
     FM220900 19015G25KT 6SM -SHRASN SCT010 OVC020
     FM221200 19015KT 4SM -RA BKN010 OVC030
     FM221800 22020G30KT 6SM -SHRA SCT010 BKN020
     FM230000 22020G30KT P6SM VCSH BKN020=



000
FTUS45 KPIH 212300
TAFIDA
TAF
KIDA 212320Z 2200/2224 VRB06KT P6SM SCT120
     FM220700 18008KT P6SM VCSH SCT020 BKN040
     FM221000 19012KT 4SM -SN BR BKN005 BKN015
     FM221500 19016G26KT 4SM -RASN BKN010 OVC020
     FM221900 22020G30KT P6SM VCSH SCT030 BKN100=



000
FTUS45 KPIH 212300
TAFPIH
TAF
KPIH 212320Z 2200/2224 18007KT P6SM SCT100
     FM220600 19011KT P6SM VCSH SCT025 BKN040
     FM221000 19015G25KT 6SM -RASN BR BKN005 OVC020
     FM221500 19015G25KT 4SM -RA BKN010 OVC030
     FM221900 22020G30KT P6SM VCSH SCT030 BKN100=



000
FTUS45 KPIH 212300
TAFBYI
TAF
KBYI 212320Z 2200/2224 VRB06KT P6SM FEW120
     FM220500 18010KT P6SM VCSH SCT025 BKN040
     FM220700 21012G20KT 4SM -RA SCT015 OVC030
     FM221100 22015G25KT P6SM VCSH SCT030 BKN060
     FM221400 23015G25KT 5SM -RA SCT020 OVC040
     FM222100 27020G30KT P6SM VCSH SCT030 BKN100=



000
FTUS45 KPIH 212300
TAFSUN
TAF
KSUN 212320Z 2200/2224 13005KT P6SM SCT120
     FM220300 31006KT P6SM VCSH BKN040 OVC100
     FM220500 VRB05KT 2SM -SN SCT010 OVC020
     FM220900 VRB05KT 5SM -SN SCT015 OVC030
     FM221300 VRB05KT 1SM -SN SCT005 OVC010
     FM221900 27010KT P6SM VCSH SCT020 OVC050
      AMD LTD TO CLD VIS AND WIND 2206/2214=



000
FTUS45 KPIH 211700
TAFPIH
TAF
KPIH 211731Z 2118/2218 VRB05KT 6SM BR SCT120
     FM220000 18007KT P6SM SCT100
     FM220600 19011KT P6SM VCSH SCT025 BKN040
     FM221000 19014G24KT 6SM -RASN BR BKN005 OVC020
     FM221500 19020G30KT P6SM -RA BKN010 OVC030=



000
FTUS45 KPIH 211700
TAFBYI
TAF
KBYI 211731Z 2118/2218 VRB06KT P6SM FEW120
     FM220700 18010KT P6SM VCSH SCT025 BKN040
     FM220900 21015G25KT P6SM -RA SCT015 OVC030=



000
FTUS45 KPIH 211700
TAFIDA
TAF
KIDA 211731Z 2118/2218 VRB06KT P6SM SCT120
     FM220700 18008KT P6SM VCSH SCT020 BKN040
     FM221000 19012KT 4SM -SN BR BKN005 BKN015
     FM221500 19016G26KT P6SM -RASN BKN010 OVC020=



000
FTUS45 KPIH 211700
TAFSUN
TAF
KSUN 211731Z 2118/2218 31007KT P6SM SCT120
     FM211900 13005KT P6SM SCT120
     FM220300 31006KT P6SM VCSH BKN040 OVC100
     FM220600 VRB05KT 2SM -SN SCT010 OVC020
     FM221300 VRB05KT 5SM -RASN BR SCT015 OVC030=



000
FTUS45 KPIH 211100
TAFIDA
TAF
KIDA 211120Z 2112/2212 VRB05KT 4SM BR SCT090 BKN120
     FM211600 VRB05KT P6SM BKN120
     FM220000 22006KT P6SM SCT050 BKN120
     FM220700 18010KT P6SM VCSH SCT015 BKN040
     FM221000 19012KT 4SM -SN SCT008 BKN015=



000
FTUS45 KPIH 211100
TAFPIH
TAF
KPIH 211120Z 2112/2212 VRB05KT 5SM BR SCT050 BKN120
     FM211600 VRB05KT P6SM BKN120
     FM220000 21007KT P6SM SCT050 BKN120
     FM220600 17008KT P6SM SCT025 BKN050
     FM221000 20010KT P6SM -RASN BKN015 OVC030=



000
FTUS45 KPIH 211100
TAFBYI
TAF
KBYI 211120Z 2112/2212 VRB05KT 4SM BR BKN120
     FM211600 VRB05KT P6SM BKN120
     FM220000 18005KT P6SM SCT050 BKN120
     FM220700 18008KT P6SM VCSH SCT025 OVC050
     FM221000 20010KT P6SM -RA SCT015 BKN030=



000
FTUS45 KPIH 211100
TAFSUN
TAF
KSUN 211120Z 2112/2212 30006KT P6SM BKN100
     FM211800 13005KT P6SM BKN100
     FM220300 31006KT P6SM VCSH SCT040 BKN100
     FM220600 VRB05KT 2SM -SN SCT015 OVC030
      AMD LTD TO CLD VIS AND WIND TIL 211400=



000
FTUS45 KPIH 210600 AAB
TAFBYI
TAF AMD
KBYI 210640Z 2107/2206 VRB05KT 4SM BR BKN120
      TEMPO 2107/2111 1/4SM FZFG VV001
     FM211600 VRB05KT P6SM BKN120
     FM220000 18005KT P6SM SCT050 BKN120=



000
FTUS45 KPIH 210600 AAB
TAFPIH
TAF AMD
KPIH 210640Z 2107/2206 VRB05KT 4SM BR BKN120
      TEMPO 2107/2111 1/4SM FZFG BKN002
     FM211600 VRB05KT P6SM BKN120
     FM220000 21007KT P6SM SCT050 BKN120=



000
FTUS45 KPIH 210600 AAA
TAFPIH
TAF AMD
KPIH 210614Z 2106/2206 VRB05KT 4SM BR BKN120
      TEMPO 2106/2110 1SM BR BKN002
     FM211600 VRB05KT P6SM BKN120
     FM220000 21007KT P6SM SCT050 BKN120=



000
FTUS45 KPIH 210600 AAA
TAFBYI
TAF AMD
KBYI 210613Z 2106/2206 VRB05KT 4SM BR BKN120
      TEMPO 2106/2110 1/2SM FZFG VV001
     FM211600 VRB05KT P6SM BKN120
     FM220000 18005KT P6SM SCT050 BKN120=



000
FTUS45 KPIH 210500
TAFPIH
TAF
KPIH 210520Z 2106/2206 VRB05KT 4SM BR BKN120
     FM211600 VRB05KT P6SM BKN120
     FM220000 21007KT P6SM SCT050 BKN120=



000
FTUS45 KPIH 210500
TAFIDA
TAF
KIDA 210520Z 2106/2206 VRB05KT 4SM BR BKN120
      TEMPO 2107/2111 2SM BR
     FM211600 VRB05KT P6SM BKN120
     FM220000 22006KT P6SM SCT050 BKN120=



000
FTUS45 KPIH 210500
TAFSUN
TAF
KSUN 210520Z 2106/2206 30006KT P6SM BKN100
     FM211800 13005KT P6SM BKN100
     FM220300 31006KT P6SM SCT040 BKN100
      AMD LTD TO CLD VIS AND WIND TIL 211400=



000
FTUS45 KPIH 210500
TAFBYI
TAF
KBYI 210520Z 2106/2206 VRB05KT 4SM BR BKN120
      TEMPO 2106/2110 2SM BR
     FM211600 VRB05KT P6SM BKN120
     FM220000 18005KT P6SM SCT050 BKN120=



000
FTUS45 KPIH 202300
TAFSUN
TAF
KSUN 202320Z 2100/2124 13005KT P6SM VCSH FEW060
     FM210300 30006KT P6SM SCT035 BKN090
     FM211800 13005KT P6SM SCT020 BKN100
      AMD LTD TO CLD VIS AND WIND 2106/2114=



000
FTUS45 KPIH 202300
TAFIDA
TAF
KIDA 202320Z 2100/2124 VRB05KT P6SM VCSH OVC020
     FM210500 VRB05KT 4SM BR OVC008
     FM211800 VRB05KT P6SM BKN020=



000
FTUS45 KPIH 202300
TAFPIH
TAF
KPIH 202320Z 2100/2124 VRB05KT P6SM FEW025 BKN080
     FM210500 VRB05KT 5SM BR OVC020
     FM211800 VRB05KT P6SM SCT020 BKN040=



000
FTUS45 KPIH 202300
TAFBYI
TAF
KBYI 202320Z 2100/2124 VRB05KT P6SM FEW100
     FM210200 VRB05KT 6SM BR FEW008
     FM210500 VRB05KT 2SM BR FEW004 BKN008
     FM211800 VRB05KT P6SM BKN020=



000
FTUS45 KPIH 202100 AAA
TAFIDA
TAF AMD
KIDA 202130Z 2022/2118 VRB05KT P6SM VCSH OVC020
     FM210500 VRB05KT 5SM BR OVC020=



000
FTUS45 KPIH 202100 AAA
TAFBYI
TAF AMD
KBYI 202130Z 2022/2118 VRB05KT P6SM SCT025 BKN070
     FM210200 VRB05KT P6SM SCT015 OVC025=



000
FTUS45 KPIH 202100 AAB
TAFPIH
TAF AMD
KPIH 202129Z 2021/2118 VRB05KT P6SM VCSH BKN025
     FM202300 VRB05KT P6SM SCT025 BKN070
     FM210500 VRB05KT 5SM BR OVC020
     FM211500 VRB05KT P6SM SCT020 OVC030=



000
FTUS45 KPIH 202000 AAA
TAFPIH
TAF AMD
KPIH 202017Z 2020/2118 22005KT P6SM VCSH BKN025
     FM210500 VRB05KT 5SM BR OVC020
     FM211500 VRB05KT P6SM SCT020 OVC030=



000
FTUS45 KPIH 201700
TAFIDA
TAF
KIDA 201724Z 2018/2118 VRB05KT P6SM FEW080 OVC110
     FM202000 VRB05KT P6SM VCSH SCT025 BKN035
     FM210500 VRB05KT 5SM BR OVC020=



000
FTUS45 KPIH 201700
TAFBYI
TAF
KBYI 201724Z 2018/2118 VRB05KT 6SM BR VCSH BKN035 OVC060
     FM202000 VRB05KT 6SM BR VCSH SCT020 OVC035
     FM210200 VRB05KT P6SM SCT015 OVC025=



000
FTUS45 KPIH 201700
TAFSUN
TAF
KSUN 201724Z 2018/2118 13005KT P6SM VCSH SCT020 BKN035
     FM210300 30006KT P6SM SCT035 BKN090=



000
FTUS45 KPIH 201700
TAFPIH
TAF
KPIH 201724Z 2018/2118 VRB05KT P6SM FEW040 BKN110
     FM202000 22005KT P6SM VCSH SCT025 BKN035
     FM210500 VRB05KT 5SM BR OVC020
     FM211500 VRB05KT P6SM SCT020 OVC030=



000
FTUS45 KPIH 201100
TAFSUN
TAF
KSUN 201120Z 2012/2112 31007KT P6SM FEW070 BKN110
     FM201500 VRB05KT P6SM VCSH SCT025 BKN060
     FM201800 13005KT P6SM VCSH BKN025
     FM210300 30006KT P6SM VCSH BKN025
      AMD LTD TO CLD VIS AND WIND TIL 201400=



000
FTUS45 KPIH 201100
TAFBYI
TAF
KBYI 201120Z 2012/2112 VRB05KT P6SM FEW070 BKN090
     FM201500 VRB05KT P6SM VCSH SCT025 BKN070
     FM201800 23005KT P6SM VCSH BKN025
     FM210200 VRB05KT P6SM SCT015 BKN025=



000
FTUS45 KPIH 201100
TAFPIH
TAF
KPIH 201120Z 2012/2112 VRB05KT 6SM BR FEW060 BKN090
     FM201700 22005KT P6SM VCSH SCT025 BKN050
     FM202100 22005KT P6SM VCSH BKN025
     FM210500 VRB05KT 5SM BR OVC020=



000
FTUS45 KPIH 201100
TAFIDA
TAF
KIDA 201120Z 2012/2112 36005KT P6SM FEW070 BKN120
     FM201900 VRB05KT P6SM VCSH SCT025 BKN070
     FM202200 21005KT P6SM VCSH BKN025
     FM210700 VRB05KT 5SM BR OVC015=



000
FTUS45 KPIH 200500
TAFSUN
TAF
KSUN 200520Z 2006/2106 31007KT P6SM BKN110
     FM201500 VRB05KT P6SM VCSH SCT025 BKN060
     FM201800 13005KT P6SM VCSH BKN025
     FM210300 30006KT P6SM VCSH BKN025
      AMD LTD TO CLD VIS AND WIND TIL 201400=



000
FTUS45 KPIH 200500
TAFIDA
TAF
KIDA 200520Z 2006/2106 36005KT P6SM BKN120
     FM201800 VRB05KT P6SM VCSH SCT025 BKN070
     FM202100 21005KT P6SM VCSH BKN025=



000
FTUS45 KPIH 200500
TAFBYI
TAF
KBYI 200520Z 2006/2106 VRB05KT P6SM BKN120
     FM201600 VRB05KT P6SM VCSH SCT025 BKN070
     FM201800 23005KT P6SM VCSH BKN025=



000
FTUS45 KPIH 200500
TAFPIH
TAF
KPIH 200520Z 2006/2106 VRB05KT P6SM BKN120
     FM201800 22005KT P6SM VCSH SCT025 BKN070
     FM202100 22005KT P6SM VCSH BKN025=



    US Dept of Commerce
    National Oceanic and Atmospheric Administration
    National Weather Service
    1325 East West Highway
    Silver Spring, MD 20910
    Page Author: NWS Internet Services Team
Disclaimer
Information Quality
Credits
Glossary
Privacy Policy
Freedom of Information Act (FOIA)
About Us
Career Opportunities